UKOO/ODS METAR and TAF weather

Enter ICAO airport designator
Station Type Date Time Source
UKOO METAR 2019/10/15 03:34 UTC NOAA

UKOO 150334Z 00000MPS 4700 BR BKN014 12/12 Q1021 R16/090060 NOSIG


Station Type Date Time Source
UKOO Decoded METAR 2019/10/15 03:34 UTC NOAA

Odesa, Ukraine (UKOO) 46-26N 030-46E 42M
Oct 14, 2019 - 11:34 PM EDT / 2019.10.15 0334 UTC
Wind: Calm:0
Visibility: 2 mile(s):0
Sky conditions: mostly cloudy
Weather: mist
Temperature: 53 F (12 C)
Dew Point: 53 F (12 C)
Relative Humidity: 100%
Pressure (altimeter): 30.15 in. Hg (1021 hPa)
ob: UKOO 150334Z 00000MPS 4700 BR BKN014 12/12 Q1021 R16/090060 NOSIG
cycle: 3

Station Type Date Time Source
UKOO TAF 2019/10/14 23:09 UTC NOAA

TAF UKOO 142301Z 1423/1524 17003MPS 0300 FG VV002
TEMPO 1423/1506 2100 BR BKN007
BECMG 1506/1507 13003MPS 6000 NSW SCT010
BECMG 1515/1516 2100 BR BKN007 PROB40
TEMPO 1516/1524 0300 FG VV002

Example: see airport list